createdAt,value
2023-03-05T00:01:10.159Z,64.78
2023-03-05T00:04:03.034Z,64.62
2023-03-05T00:06:55.599Z,64.45
2023-03-05T00:09:47.589Z,64.44
2023-03-05T00:12:39.631Z,64.42
2023-03-05T00:15:31.690Z,64.48
2023-03-05T00:18:24.625Z,64.44
2023-03-05T00:21:25.150Z,63.76
2023-03-05T00:24:19.184Z,62.89
2023-03-05T00:27:11.232Z,61.66
2023-03-05T00:30:03.288Z,60.19
2023-03-05T00:32:55.307Z,59.67
2023-03-05T00:35:47.844Z,59.58
2023-03-05T00:38:39.981Z,58.88
2023-03-05T00:41:32.024Z,58.60
2023-03-05T00:44:24.157Z,58.25
2023-03-05T00:47:18.341Z,57.36
2023-03-05T00:50:10.126Z,57.01
2023-03-05T00:53:02.092Z,56.59
2023-03-05T00:55:54.130Z,56.36
2023-03-05T00:58:46.328Z,56.06
2023-03-05T01:01:38.314Z,56.01
2023-03-05T01:04:30.231Z,55.98
2023-03-05T01:07:22.257Z,55.84
2023-03-05T01:10:15.188Z,55.81
2023-03-05T01:13:07.184Z,55.38
2023-03-05T01:15:59.197Z,55.29
2023-03-05T01:18:51.192Z,55.34
2023-03-05T01:21:43.479Z,55.12
2023-03-05T01:24:35.444Z,55.29
2023-03-05T01:27:27.563Z,54.82
2023-03-05T01:30:19.677Z,54.76
2023-03-05T01:33:11.617Z,54.25
2023-03-05T01:36:03.651Z,54.20
2023-03-05T01:38:55.637Z,53.99
2023-03-05T01:41:47.658Z,54.12
2023-03-05T01:44:39.667Z,54.34
2023-03-05T01:47:32.337Z,54.05
2023-03-05T01:50:27.387Z,54.20
2023-03-05T01:53:19.518Z,53.99
2023-03-05T01:56:11.874Z,53.91
2023-03-05T01:59:04.749Z,54.34
2023-03-05T02:01:59.301Z,54.30
2023-03-05T02:04:55.902Z,54.19
2023-03-05T02:07:48.542Z,54.12
2023-03-05T02:10:43.331Z,53.94
2023-03-05T02:13:38.615Z,53.80
2023-03-05T02:16:13.238Z,54.15
2023-03-05T02:19:07.016Z,54.20
2023-03-05T02:21:58.953Z,54.37
2023-03-05T02:24:51.693Z,54.43
2023-03-05T02:27:47.996Z,54.31
2023-03-05T02:30:39.951Z,53.92
2023-03-05T02:33:31.944Z,54.04
2023-03-05T02:36:24.866Z,54.04
2023-03-05T02:39:16.927Z,53.94
2023-03-05T02:42:09.858Z,53.78
2023-03-05T02:45:02.460Z,54.15
2023-03-05T02:47:55.206Z,54.35
2023-03-05T02:50:48.321Z,54.26
2023-03-05T02:53:40.359Z,54.15
2023-03-05T02:56:32.397Z,54.12
2023-03-05T02:59:24.425Z,54.03
2023-03-05T03:02:17.022Z,54.07
2023-03-05T03:05:10.629Z,54.41
2023-03-05T03:08:02.587Z,54.65
2023-03-05T03:10:56.459Z,54.62
2023-03-05T03:13:48.468Z,54.64
2023-03-05T03:16:40.645Z,54.70
2023-03-05T03:19:32.709Z,54.51
2023-03-05T03:22:24.680Z,54.39
2023-03-05T03:25:18.691Z,54.38
2023-03-05T03:28:10.644Z,54.05
2023-03-05T03:31:03.140Z,54.30
2023-03-05T03:33:55.155Z,54.24
2023-03-05T03:36:49.055Z,54.68
2023-03-05T03:39:41.161Z,55.15
2023-03-05T03:42:33.156Z,55.17
2023-03-05T03:45:25.223Z,55.44
2023-03-05T03:48:17.190Z,55.68
2023-03-05T03:51:10.467Z,55.81
2023-03-05T03:54:02.938Z,55.55
2023-03-05T03:56:55.043Z,55.75
2023-03-05T03:59:47.224Z,55.87
2023-03-05T04:02:39.597Z,56.10
2023-03-05T04:05:31.675Z,56.39
2023-03-05T04:08:23.640Z,56.40
2023-03-05T04:11:15.980Z,56.38
2023-03-05T04:14:08.071Z,56.24
2023-03-05T04:17:00.045Z,56.35
2023-03-05T04:19:52.091Z,56.63
2023-03-05T04:22:44.093Z,56.65
2023-03-05T04:25:36.182Z,56.59
2023-03-05T04:28:28.506Z,56.34
2023-03-05T04:31:20.951Z,56.36
2023-03-05T04:34:12.941Z,56.53
2023-03-05T04:37:04.941Z,56.61
2023-03-05T04:39:56.992Z,56.81
2023-03-05T04:42:48.956Z,56.90
2023-03-05T04:45:43.708Z,56.91
2023-03-05T04:48:35.765Z,56.92
2023-03-05T04:51:27.743Z,57.00
2023-03-05T04:54:19.826Z,57.08
2023-03-05T04:57:11.996Z,57.39
2023-03-05T05:00:06.837Z,57.58
2023-03-05T05:02:58.874Z,57.88
2023-03-05T05:05:56.933Z,58.11
2023-03-05T05:08:48.906Z,58.24
2023-03-05T05:11:41.783Z,58.61
2023-03-05T05:14:34.520Z,58.52
2023-03-05T05:17:26.591Z,58.79
2023-03-05T05:20:20.055Z,58.74
2023-03-05T05:23:12.245Z,58.88
2023-03-05T05:26:06.545Z,58.80
2023-03-05T05:28:58.551Z,58.54
2023-03-05T05:31:50.657Z,58.37
2023-03-05T05:34:42.730Z,57.83
2023-03-05T05:37:34.760Z,57.64
2023-03-05T05:40:26.942Z,57.30
2023-03-05T05:43:18.975Z,57.19
2023-03-05T05:46:14.572Z,57.39
2023-03-05T05:49:06.612Z,57.42
2023-03-05T05:51:59.380Z,57.21
2023-03-05T05:54:51.478Z,57.17
2023-03-05T05:57:43.441Z,57.06
2023-03-05T06:00:35.496Z,57.26
2023-03-05T06:03:27.752Z,57.10
2023-03-05T06:06:22.009Z,57.18
2023-03-05T06:09:12.526Z,57.50
2023-03-05T06:12:04.960Z,57.61
2023-03-05T06:14:57.085Z,57.62
2023-03-05T06:17:49.140Z,57.79
2023-03-05T06:20:31.505Z,57.89
2023-03-05T06:23:23.570Z,58.10
2023-03-05T06:26:17.955Z,58.25
2023-03-05T06:29:09.958Z,58.31
2023-03-05T06:31:44.633Z,58.54
2023-03-05T06:34:36.653Z,58.62
2023-03-05T06:37:28.756Z,58.60
2023-03-05T06:40:21.041Z,58.79
2023-03-05T06:43:13.313Z,59.07
2023-03-05T06:46:06.469Z,59.18
2023-03-05T06:49:00.669Z,59.38
2023-03-05T06:51:52.733Z,59.54
2023-03-05T06:54:44.927Z,59.56
2023-03-05T06:57:37.301Z,59.51
2023-03-05T07:00:14.716Z,59.72
2023-03-05T07:03:06.770Z,59.75
2023-03-05T07:05:58.817Z,59.75
2023-03-05T07:08:51.395Z,59.82
2023-03-05T07:11:43.491Z,60.21
2023-03-05T07:14:18.516Z,60.44
2023-03-05T07:17:10.937Z,60.68
2023-03-05T07:20:04.311Z,60.74
2023-03-05T07:22:56.359Z,60.81
2023-03-05T07:25:48.447Z,61.00
2023-03-05T07:28:40.901Z,61.34
2023-03-05T07:31:19.245Z,61.54
2023-03-05T07:34:12.338Z,61.58
2023-03-05T07:37:04.396Z,61.79
2023-03-05T07:39:56.478Z,61.99
2023-03-05T07:42:48.548Z,62.17
2023-03-05T07:45:43.316Z,62.23
2023-03-05T07:48:35.400Z,62.42
2023-03-05T07:51:29.228Z,62.35
2023-03-05T07:54:21.312Z,61.88
2023-03-05T07:56:56.863Z,61.65
2023-03-05T07:59:48.968Z,61.46
2023-03-05T08:02:41.260Z,61.64
2023-03-05T08:05:33.422Z,61.59
2023-03-05T08:08:25.526Z,61.76
2023-03-05T08:11:18.437Z,61.62
2023-03-05T08:14:10.800Z,61.44
2023-03-05T08:17:02.880Z,61.52
2023-03-05T08:19:57.641Z,61.57
2023-03-05T08:22:49.937Z,61.61
2023-03-05T08:25:42.027Z,61.41
2023-03-05T08:28:34.505Z,61.24
2023-03-05T08:31:30.133Z,61.62
2023-03-05T08:34:22.462Z,61.42
2023-03-05T08:37:14.500Z,61.26
2023-03-05T08:40:07.776Z,61.43
2023-03-05T08:42:59.954Z,61.35
2023-03-05T08:45:53.530Z,61.47
2023-03-05T08:48:45.822Z,61.48
2023-03-05T08:51:37.844Z,61.48
2023-03-05T08:54:29.875Z,61.54
2023-03-05T08:57:21.791Z,61.34
2023-03-05T09:00:15.900Z,61.57
2023-03-05T09:03:07.910Z,61.50
2023-03-05T09:06:03.378Z,61.59
2023-03-05T09:08:55.781Z,61.68
2023-03-05T09:11:47.822Z,61.73
2023-03-05T09:14:39.882Z,61.87
2023-03-05T09:17:31.891Z,61.88
2023-03-05T09:20:24.132Z,61.63
2023-03-05T09:23:06.436Z,61.27
2023-03-05T09:25:58.406Z,61.21
2023-03-05T09:28:50.849Z,61.55
2023-03-05T09:31:43.999Z,61.49
2023-03-05T09:34:36.017Z,61.36
2023-03-05T09:37:29.325Z,61.75
2023-03-05T09:40:23.034Z,62.07
2023-03-05T09:43:25.080Z,62.42
2023-03-05T09:46:11.737Z,62.72
2023-03-05T09:48:56.367Z,62.97
2023-03-05T09:51:51.721Z,63.16
2023-03-05T09:54:48.156Z,63.46
2023-03-05T09:57:45.668Z,63.61
2023-03-05T10:00:42.540Z,63.71
2023-03-05T10:03:53.204Z,63.79
2023-03-05T10:06:53.528Z,64.05
2023-03-05T10:09:50.536Z,64.15
2023-03-05T10:12:45.263Z,64.12
2023-03-05T10:15:43.589Z,64.03
2023-03-05T10:18:42.457Z,64.16
2023-03-05T10:21:41.208Z,64.17
2023-03-05T10:24:51.082Z,64.21
2023-03-05T10:27:54.354Z,64.04
2023-03-05T10:31:03.341Z,64.20
2023-03-05T10:33:52.629Z,64.07
2023-03-05T10:36:57.137Z,64.02
2023-03-05T10:40:00.241Z,64.01
2023-03-05T10:42:51.531Z,63.95
2023-03-05T10:45:47.335Z,64.01
2023-03-05T10:48:43.766Z,64.11
2023-03-05T10:51:40.483Z,63.60
2023-03-05T10:54:21.134Z,63.37
2023-03-05T10:57:20.532Z,63.54
2023-03-05T11:00:21.442Z,63.51
2023-03-05T11:03:13.414Z,63.80
2023-03-05T11:06:06.232Z,63.41
2023-03-05T11:09:15.804Z,63.63
2023-03-05T11:12:18.243Z,63.73
2023-03-05T11:15:27.613Z,64.00
2023-03-05T11:18:24.103Z,64.24
2023-03-05T11:21:27.580Z,64.24
2023-03-05T11:24:13.806Z,63.90
2023-03-05T11:27:26.978Z,63.75
2023-03-05T11:30:30.015Z,63.58
2023-03-05T11:33:23.924Z,63.62
2023-03-05T11:36:26.065Z,63.06
2023-03-05T11:39:22.376Z,63.18
2023-03-05T11:42:19.313Z,63.09
2023-03-05T11:45:18.228Z,63.25
2023-03-05T11:48:14.074Z,62.97
2023-03-05T11:51:18.808Z,62.75
2023-03-05T11:54:07.875Z,62.64
2023-03-05T11:57:01.619Z,61.87
2023-03-05T11:59:56.640Z,61.13
2023-03-05T12:02:53.069Z,60.61
2023-03-05T12:05:48.842Z,60.51
2023-03-05T12:08:45.561Z,60.63
2023-03-05T12:11:39.480Z,60.38
2023-03-05T12:14:37.977Z,59.92
2023-03-05T12:17:34.485Z,59.38
2023-03-05T12:20:37.347Z,58.51
2023-03-05T12:23:31.329Z,58.09
2023-03-05T12:26:43.018Z,57.98
2023-03-05T12:29:42.021Z,57.72
2023-03-05T12:33:03.354Z,57.57
2023-03-05T12:35:55.862Z,57.52
2023-03-05T12:38:48.222Z,57.83
2023-03-05T12:41:40.591Z,59.16
2023-03-05T12:44:32.745Z,58.50
2023-03-05T12:47:24.896Z,55.55
2023-03-05T12:51:00.496Z,54.24
2023-03-05T12:53:39.928Z,52.83
2023-03-05T12:56:25.099Z,52.12
2023-03-05T12:59:07.999Z,51.14
2023-03-05T13:02:04.568Z,50.22
2023-03-05T13:05:02.102Z,49.36
2023-03-05T13:07:54.356Z,48.97
2023-03-05T13:10:37.185Z,48.75
2023-03-05T13:13:15.901Z,49.23
2023-03-05T13:16:17.500Z,49.82
2023-03-05T13:18:50.200Z,50.33
2023-03-05T13:21:42.309Z,50.43
2023-03-05T13:24:20.690Z,50.66
2023-03-05T13:27:25.684Z,50.43
2023-03-05T13:30:30.127Z,50.41
2023-03-05T13:33:26.959Z,50.78
2023-03-05T13:36:02.343Z,50.68
2023-03-05T13:38:55.457Z,51.14
2023-03-05T13:41:58.997Z,52.09
2023-03-05T13:44:57.871Z,52.72
2023-03-05T13:47:58.183Z,53.41
2023-03-05T13:50:57.157Z,53.87
2023-03-05T13:53:49.581Z,54.17
2023-03-05T13:56:51.408Z,54.75
2023-03-05T13:59:38.886Z,55.23
2023-03-05T14:02:33.472Z,55.40
2023-03-05T14:05:25.603Z,55.45
2023-03-05T14:07:59.999Z,55.68
2023-03-05T14:10:52.726Z,55.67
2023-03-05T14:13:28.055Z,55.66
2023-03-05T14:16:11.121Z,55.86
2023-03-05T14:19:07.140Z,55.92
2023-03-05T14:21:59.160Z,55.71
2023-03-05T14:24:41.410Z,55.95
2023-03-05T14:27:36.056Z,56.23
2023-03-05T14:30:30.855Z,56.21
2023-03-05T14:33:25.974Z,56.04
2023-03-05T14:36:04.050Z,56.23
2023-03-05T14:38:44.144Z,56.23
2023-03-05T14:41:39.499Z,56.19
2023-03-05T14:44:31.498Z,56.31
2023-03-05T14:47:07.090Z,56.25
2023-03-05T14:49:59.117Z,56.38
2023-03-05T14:52:53.017Z,56.15
2023-03-05T14:55:48.800Z,56.56
2023-03-05T14:58:40.973Z,56.77
2023-03-05T15:01:21.881Z,56.94
2023-03-05T15:04:15.560Z,57.21
2023-03-05T15:07:08.962Z,57.49
2023-03-05T15:09:50.900Z,57.53
2023-03-05T15:12:44.091Z,57.65
2023-03-05T15:15:36.220Z,57.77
2023-03-05T15:18:28.362Z,57.85
2023-03-05T15:21:20.402Z,57.86
2023-03-05T15:24:14.714Z,57.94
2023-03-05T15:27:06.176Z,57.95
2023-03-05T15:29:59.035Z,58.16
2023-03-05T15:32:51.411Z,58.20
2023-03-05T15:35:44.150Z,58.34
2023-03-05T15:38:38.788Z,58.02
2023-03-05T15:41:30.971Z,57.69
2023-03-05T15:44:23.619Z,57.82
2023-03-05T15:47:15.629Z,57.93
2023-03-05T15:50:09.544Z,57.76
2023-03-05T15:52:44.724Z,57.67
2023-03-05T15:55:40.077Z,57.75
2023-03-05T15:58:32.145Z,57.76
2023-03-05T16:01:24.373Z,57.59
2023-03-05T16:04:17.910Z,57.66
2023-03-05T16:07:10.729Z,57.45
2023-03-05T16:09:54.634Z,57.29
2023-03-05T16:12:48.384Z,57.55
2023-03-05T16:15:42.082Z,57.67
2023-03-05T16:18:37.501Z,57.84
2023-03-05T16:21:29.618Z,57.81
2023-03-05T16:24:21.764Z,57.90
2023-03-05T16:27:14.087Z,58.30
2023-03-05T16:30:07.302Z,58.32
2023-03-05T16:32:59.231Z,58.46
2023-03-05T16:35:51.350Z,58.64
2023-03-05T16:38:43.407Z,58.61
2023-03-05T16:41:35.748Z,58.79
2023-03-05T16:44:11.008Z,59.02
2023-03-05T16:47:03.146Z,59.13
2023-03-05T16:49:55.315Z,59.35
2023-03-05T16:52:47.886Z,59.50
2023-03-05T16:55:40.321Z,59.57
2023-03-05T16:58:33.646Z,59.78
2023-03-05T17:01:26.921Z,59.98
2023-03-05T17:04:19.627Z,60.47
2023-03-05T17:07:12.494Z,60.90
2023-03-05T17:10:04.652Z,61.39
2023-03-05T17:12:56.796Z,61.87
2023-03-05T17:15:31.312Z,62.31
2023-03-05T17:18:23.318Z,62.68
2023-03-05T17:21:16.198Z,62.99
2023-03-05T17:24:08.723Z,63.38
2023-03-05T17:27:01.220Z,63.54
2023-03-05T17:29:53.190Z,63.46
2023-03-05T17:32:45.241Z,63.47
2023-03-05T17:35:37.571Z,63.74
2023-03-05T17:38:30.305Z,63.74
2023-03-05T17:41:22.898Z,63.85
2023-03-05T17:44:15.381Z,63.94
2023-03-05T17:47:07.995Z,64.14
2023-03-05T17:50:00.755Z,64.26
2023-03-05T17:52:53.000Z,64.22
2023-03-05T17:55:45.244Z,64.40
2023-03-05T17:58:38.190Z,64.40
2023-03-05T18:01:32.563Z,64.66
2023-03-05T18:04:24.769Z,64.53
2023-03-05T18:07:16.971Z,64.41
2023-03-05T18:10:11.229Z,64.26
2023-03-05T18:13:03.354Z,64.25
2023-03-05T18:15:58.430Z,64.51
2023-03-05T18:18:40.946Z,64.46
2023-03-05T18:21:33.125Z,64.29
2023-03-05T18:24:25.463Z,64.33
2023-03-05T18:27:17.490Z,64.38
2023-03-05T18:30:12.015Z,64.61
2023-03-05T18:33:04.670Z,64.49
2023-03-05T18:35:58.249Z,64.44
2023-03-05T18:38:50.317Z,64.41
2023-03-05T18:41:42.747Z,64.50
2023-03-05T18:44:34.872Z,64.64
2023-03-05T18:47:28.000Z,64.58
2023-03-05T18:50:21.406Z,64.65
2023-03-05T18:53:14.894Z,64.76
2023-03-05T18:56:11.181Z,64.59
2023-03-05T18:59:03.821Z,64.72
2023-03-05T19:01:55.949Z,64.88
2023-03-05T19:04:47.970Z,65.05
2023-03-05T19:07:40.187Z,65.08
2023-03-05T19:10:34.359Z,65.07
2023-03-05T19:13:40.827Z,65.20
2023-03-05T19:16:40.412Z,65.50
2023-03-05T19:19:32.537Z,65.37
2023-03-05T19:22:26.551Z,65.63
2023-03-05T19:25:19.130Z,65.82
2023-03-05T19:28:11.323Z,65.83
2023-03-05T19:31:03.554Z,66.10
2023-03-05T19:33:56.440Z,65.93
2023-03-05T19:36:49.221Z,66.01
2023-03-05T19:39:41.671Z,65.57
2023-03-05T19:42:35.756Z,65.47
2023-03-05T19:45:18.946Z,65.51
2023-03-05T19:48:11.329Z,65.72
2023-03-05T19:51:03.996Z,65.72
2023-03-05T19:53:56.459Z,65.63
2023-03-05T19:56:50.006Z,65.95
2023-03-05T19:59:43.996Z,65.86
2023-03-05T20:02:36.146Z,66.08
2023-03-05T20:05:28.365Z,65.84
2023-03-05T20:08:20.359Z,65.74
2023-03-05T20:11:14.664Z,65.60
2023-03-05T20:14:06.933Z,65.29
2023-03-05T20:16:58.954Z,65.38
2023-03-05T20:19:51.012Z,65.23
2023-03-05T20:22:45.106Z,65.30
2023-03-05T20:25:38.675Z,65.24
2023-03-05T20:28:30.896Z,65.16
2023-03-05T20:31:25.451Z,65.16
2023-03-05T20:34:20.102Z,65.51
2023-03-05T20:37:12.102Z,65.63
2023-03-05T20:40:04.088Z,65.69
2023-03-05T20:42:56.122Z,65.64
2023-03-05T20:45:48.388Z,65.63
2023-03-05T20:48:40.391Z,65.62
2023-03-05T20:51:35.022Z,65.70
2023-03-05T20:54:27.406Z,65.71
2023-03-05T20:57:02.112Z,65.70
2023-03-05T20:59:54.108Z,65.53
2023-03-05T21:02:46.321Z,65.80
2023-03-05T21:05:39.214Z,65.84
2023-03-05T21:08:14.345Z,65.88
2023-03-05T21:11:09.988Z,65.89
2023-03-05T21:14:02.100Z,65.99
2023-03-05T21:16:54.212Z,66.06
2023-03-05T21:19:46.241Z,66.21
2023-03-05T21:22:38.474Z,66.33
2023-03-05T21:25:32.567Z,66.32
2023-03-05T21:28:23.011Z,66.20
2023-03-05T21:31:18.372Z,66.33
2023-03-05T21:34:10.441Z,66.27
2023-03-05T21:37:02.543Z,66.49
2023-03-05T21:39:54.603Z,66.31
2023-03-05T21:42:47.169Z,66.29
2023-03-05T21:45:40.427Z,66.24
2023-03-05T21:48:33.070Z,66.51
2023-03-05T21:52:09.285Z,66.70
2023-03-05T21:55:01.437Z,66.61
2023-03-05T21:57:53.413Z,66.60
2023-03-05T22:00:45.465Z,66.61
2023-03-05T22:03:37.549Z,66.54
2023-03-05T22:06:29.708Z,66.64
2023-03-05T22:09:04.749Z,66.50
2023-03-05T22:11:56.752Z,66.49
2023-03-05T22:14:48.712Z,66.52
2023-03-05T22:17:40.695Z,66.46
2023-03-05T22:20:14.871Z,66.56
2023-03-05T22:23:06.995Z,66.86
2023-03-05T22:26:00.627Z,66.67
2023-03-05T22:28:52.846Z,66.92
2023-03-05T22:31:45.503Z,66.84
2023-03-05T22:34:37.959Z,67.05
2023-03-05T22:37:31.117Z,67.06
2023-03-05T22:40:25.150Z,66.95
2023-03-05T22:43:16.449Z,67.10
2023-03-05T22:46:16.249Z,67.14
2023-03-05T22:49:08.348Z,67.04
2023-03-05T22:52:00.303Z,67.08
2023-03-05T22:54:54.388Z,66.86
2023-03-05T22:57:48.526Z,66.78
2023-03-05T23:00:41.250Z,67.14
2023-03-05T23:03:33.274Z,66.99
2023-03-05T23:06:25.639Z,67.08
2023-03-05T23:09:17.603Z,67.13
2023-03-05T23:11:58.361Z,67.22
2023-03-05T23:14:50.384Z,67.42
2023-03-05T23:17:42.776Z,67.18
2023-03-05T23:20:37.235Z,66.82
2023-03-05T23:23:17.968Z,67.03
2023-03-05T23:26:09.944Z,67.04
2023-03-05T23:29:01.995Z,66.95
2023-03-05T23:31:33.841Z,67.22
2023-03-05T23:34:26.586Z,67.12
2023-03-05T23:37:07.607Z,67.26
2023-03-05T23:40:00.448Z,67.16
2023-03-05T23:42:52.978Z,67.06
2023-03-05T23:45:47.912Z,67.16
2023-03-05T23:48:40.005Z,67.00
2023-03-05T23:51:32.244Z,66.94
2023-03-05T23:54:24.185Z,66.84
2023-03-05T23:57:16.195Z,67.00
